createdAt,value
2023-03-10T00:01:17.301Z,15.52
2023-03-10T00:03:44.712Z,19.33
2023-03-10T00:06:15.111Z,18.25
2023-03-10T00:08:43.030Z,18.13
2023-03-10T00:11:11.062Z,18.60
2023-03-10T00:13:38.302Z,17.40
2023-03-10T00:16:06.249Z,18.42
2023-03-10T00:18:34.573Z,20.20
2023-03-10T00:21:05.115Z,14.80
2023-03-10T00:23:32.409Z,17.25
2023-03-10T00:26:01.027Z,17.08
2023-03-10T00:28:29.207Z,22.13
2023-03-10T00:31:08.120Z,16.20
2023-03-10T00:33:35.992Z,17.50
2023-03-10T00:36:15.114Z,18.05
2023-03-10T00:38:43.654Z,17.83
2023-03-10T00:41:20.087Z,21.27
2023-03-10T00:43:48.010Z,18.15
2023-03-10T00:46:15.577Z,21.98
2023-03-10T00:48:43.221Z,19.27
2023-03-10T00:51:10.723Z,19.60
2023-03-10T00:53:40.054Z,18.90
2023-03-10T00:56:16.352Z,19.23
2023-03-10T00:58:44.178Z,17.63
2023-03-10T01:01:21.783Z,19.23
2023-03-10T01:03:52.226Z,19.88
2023-03-10T01:06:20.059Z,17.77
2023-03-10T01:08:47.318Z,15.50
2023-03-10T01:11:19.337Z,17.60
2023-03-10T01:16:14.796Z,16.95
2023-03-10T01:18:43.465Z,15.88
2023-03-10T01:21:16.483Z,22.42
2023-03-10T01:23:43.877Z,16.05
2023-03-10T01:26:11.488Z,20.13
2023-03-10T01:28:41.377Z,17.38
2023-03-10T01:31:08.831Z,25.00
2023-03-10T01:33:41.801Z,22.08
2023-03-10T01:36:09.930Z,15.88
2023-03-10T01:38:38.168Z,15.63
2023-03-10T01:41:06.437Z,20.15
2023-03-10T01:43:42.186Z,22.80
2023-03-10T01:46:37.334Z,17.67
2023-03-10T01:49:19.836Z,17.75
2023-03-10T01:51:54.601Z,17.10
2023-03-10T01:54:26.657Z,18.63
2023-03-10T01:56:55.178Z,18.20
2023-03-10T01:59:23.819Z,16.52
2023-03-10T02:01:52.668Z,19.42
2023-03-10T02:04:27.443Z,14.68
2023-03-10T02:06:55.889Z,21.50
2023-03-10T02:09:23.857Z,18.85
2023-03-10T02:11:51.625Z,15.20
2023-03-10T02:14:19.901Z,17.95
2023-03-10T02:16:47.363Z,16.48
2023-03-10T02:19:37.274Z,19.85
2023-03-10T02:22:12.638Z,17.10
2023-03-10T02:25:28.540Z,18.80
2023-03-10T02:27:58.406Z,16.60
2023-03-10T02:30:29.843Z,17.77
2023-03-10T02:33:00.698Z,17.23
2023-03-10T02:35:28.321Z,23.10
2023-03-10T02:37:55.458Z,20.65
2023-03-10T02:40:25.654Z,22.42
2023-03-10T02:42:53.076Z,20.08
2023-03-10T02:45:20.464Z,22.40
2023-03-10T02:47:47.758Z,18.13
2023-03-10T02:50:17.767Z,17.48
2023-03-10T02:53:00.238Z,18.27
2023-03-10T02:55:27.424Z,21.50
2023-03-10T02:57:55.190Z,20.25
2023-03-10T03:00:22.788Z,19.27
2023-03-10T03:02:50.543Z,18.67
2023-03-10T03:05:17.946Z,22.60
2023-03-10T03:07:45.207Z,19.42
2023-03-10T03:10:12.837Z,20.15
2023-03-10T03:12:40.769Z,19.70
2023-03-10T03:15:08.755Z,18.40
2023-03-10T03:17:36.131Z,22.70
2023-03-10T03:20:12.150Z,20.85
2023-03-10T03:22:39.576Z,21.00
2023-03-10T03:25:07.335Z,21.48
2023-03-10T03:27:37.477Z,22.02
2023-03-10T03:30:10.460Z,19.02
2023-03-10T03:32:38.124Z,17.35
2023-03-10T03:35:16.654Z,18.20
2023-03-10T03:37:47.069Z,18.42
2023-03-10T03:40:14.875Z,18.88
2023-03-10T03:42:47.466Z,20.95
2023-03-10T03:45:16.865Z,19.88
2023-03-10T03:47:45.141Z,24.95
2023-03-10T03:50:14.455Z,26.40
2023-03-10T03:52:42.787Z,17.83
2023-03-10T03:55:11.781Z,16.48
2023-03-10T03:57:39.696Z,20.35
2023-03-10T04:00:09.336Z,18.58
2023-03-10T04:02:36.799Z,18.33
2023-03-10T04:05:04.991Z,21.35
2023-03-10T04:07:32.290Z,19.73
2023-03-10T04:09:59.649Z,20.80
2023-03-10T04:12:27.573Z,19.73
2023-03-10T04:14:54.754Z,21.17
2023-03-10T04:17:21.993Z,19.58
2023-03-10T04:20:00.776Z,20.15
2023-03-10T04:22:33.422Z,21.15
2023-03-10T04:25:00.587Z,19.35
2023-03-10T04:27:28.363Z,18.52
2023-03-10T04:29:57.754Z,19.33
2023-03-10T04:32:26.017Z,18.45
2023-03-10T04:34:53.126Z,24.77
2023-03-10T04:37:21.973Z,19.05
2023-03-10T04:39:49.252Z,22.33
2023-03-10T04:42:16.442Z,22.52
2023-03-10T04:44:43.841Z,22.80
2023-03-10T04:47:11.090Z,26.58
2023-03-10T04:49:38.804Z,24.42
2023-03-10T04:52:06.588Z,26.17
2023-03-10T04:54:33.696Z,26.08
2023-03-10T04:57:01.015Z,26.98
2023-03-10T04:59:28.447Z,25.40
2023-03-10T05:01:55.774Z,21.98
2023-03-10T05:04:23.647Z,20.95
2023-03-10T05:06:52.303Z,22.48
2023-03-10T05:09:19.753Z,23.85
2023-03-10T05:11:48.031Z,23.23
2023-03-10T05:14:15.964Z,24.42
2023-03-10T05:16:43.468Z,20.13
2023-03-10T05:19:10.797Z,20.02
2023-03-10T05:21:38.214Z,23.15
2023-03-10T05:24:05.804Z,19.58
2023-03-10T05:26:34.811Z,19.67
2023-03-10T05:29:06.664Z,20.55
2023-03-10T05:31:35.928Z,18.83
2023-03-10T05:34:03.013Z,19.73
2023-03-10T05:36:30.216Z,19.95
2023-03-10T05:38:57.692Z,20.48
2023-03-10T05:41:25.289Z,20.67
2023-03-10T05:43:52.792Z,18.88
2023-03-10T05:46:20.068Z,18.27
2023-03-10T05:48:52.030Z,20.80
2023-03-10T05:51:19.164Z,20.48
2023-03-10T05:53:48.417Z,19.85
2023-03-10T05:56:17.876Z,19.13
2023-03-10T05:58:45.988Z,19.52
2023-03-10T06:01:13.845Z,22.88
2023-03-10T06:03:41.043Z,21.20
2023-03-10T06:06:08.481Z,21.63
2023-03-10T06:08:35.841Z,22.02
2023-03-10T06:11:04.357Z,25.98
2023-03-10T06:13:35.007Z,25.48
2023-03-10T06:16:05.852Z,23.60
2023-03-10T06:18:33.967Z,19.73
2023-03-10T06:21:05.238Z,20.48
2023-03-10T06:23:34.832Z,18.55
2023-03-10T06:26:03.037Z,23.55
2023-03-10T06:28:33.380Z,22.23
2023-03-10T06:31:05.008Z,17.73
2023-03-10T06:33:32.771Z,26.42
2023-03-10T06:35:59.943Z,19.08
2023-03-10T06:38:30.581Z,25.65
2023-03-10T06:40:58.372Z,26.75
2023-03-10T06:43:25.876Z,27.88
2023-03-10T06:45:55.615Z,35.03
2023-03-10T06:48:25.299Z,41.03
2023-03-10T06:50:52.673Z,26.48
2023-03-10T06:53:21.465Z,32.05
2023-03-10T06:56:09.029Z,30.30
2023-03-10T06:58:37.039Z,29.58
2023-03-10T07:01:05.374Z,23.42
2023-03-10T07:03:32.601Z,19.13
2023-03-10T07:06:00.156Z,18.55
2023-03-10T07:08:28.707Z,25.48
2023-03-10T07:10:56.597Z,16.05
2023-03-10T07:13:23.965Z,16.25
2023-03-10T07:15:51.036Z,22.17
2023-03-10T07:18:18.149Z,18.83
2023-03-10T07:20:46.131Z,16.13
2023-03-10T07:23:13.662Z,20.33
2023-03-10T07:25:40.987Z,15.45
2023-03-10T07:28:08.568Z,21.35
2023-03-10T07:30:40.100Z,27.70
2023-03-10T07:33:07.075Z,19.52
2023-03-10T07:35:37.450Z,21.23
2023-03-10T07:38:04.868Z,21.38
2023-03-10T07:40:32.046Z,22.00
2023-03-10T07:42:59.407Z,19.23
2023-03-10T07:45:27.160Z,24.88
2023-03-10T07:47:54.718Z,20.83
2023-03-10T07:50:22.653Z,24.48
2023-03-10T07:52:52.670Z,19.08
2023-03-10T07:55:20.024Z,21.98
2023-03-10T07:58:01.324Z,18.08
2023-03-10T08:00:28.784Z,19.67
2023-03-10T08:02:56.004Z,17.77
2023-03-10T08:05:23.136Z,17.38
2023-03-10T08:07:50.235Z,14.55
2023-03-10T08:10:18.929Z,18.60
2023-03-10T08:12:46.002Z,18.23
2023-03-10T08:15:14.795Z,20.63
2023-03-10T08:17:41.905Z,15.45
2023-03-10T08:20:10.725Z,17.45
2023-03-10T08:22:37.816Z,15.60
2023-03-10T08:25:05.271Z,19.38
2023-03-10T08:27:32.353Z,19.42
2023-03-10T08:29:59.833Z,19.38
2023-03-10T08:32:27.262Z,14.30
2023-03-10T08:34:54.482Z,17.08
2023-03-10T08:37:21.574Z,18.85
2023-03-10T08:39:50.215Z,16.20
2023-03-10T08:42:17.370Z,20.67
2023-03-10T08:44:44.580Z,16.83
2023-03-10T08:47:11.722Z,22.55
2023-03-10T08:49:39.029Z,18.35
2023-03-10T08:52:09.411Z,15.93
2023-03-10T08:54:36.599Z,19.02
2023-03-10T08:57:04.005Z,18.55
2023-03-10T08:59:31.426Z,16.88
2023-03-10T09:02:03.085Z,14.57
2023-03-10T09:04:30.281Z,24.17
2023-03-10T09:06:59.902Z,15.13
2023-03-10T09:09:27.424Z,20.48
2023-03-10T09:11:54.735Z,17.50
2023-03-10T09:14:22.371Z,17.85
2023-03-10T09:16:49.606Z,16.10
2023-03-10T09:19:17.127Z,13.00
2023-03-10T09:21:44.463Z,18.70
2023-03-10T09:24:12.652Z,18.48
2023-03-10T09:26:42.868Z,17.10
2023-03-10T09:29:13.274Z,18.10
2023-03-10T09:31:40.594Z,19.48
2023-03-10T09:34:08.728Z,20.10
2023-03-10T09:36:36.123Z,21.85
2023-03-10T09:39:05.839Z,27.05
2023-03-10T09:41:48.188Z,23.75
2023-03-10T09:47:10.891Z,24.08
2023-03-10T09:49:40.695Z,23.05
2023-03-10T09:52:38.744Z,18.38
2023-03-10T09:55:29.874Z,19.73
2023-03-10T09:57:57.660Z,21.05
2023-03-10T10:00:34.788Z,20.52
2023-03-10T10:03:13.311Z,27.63
2023-03-10T10:05:43.114Z,24.52
2023-03-10T10:08:49.042Z,19.63
2023-03-10T10:11:19.498Z,18.67
2023-03-10T10:13:46.983Z,22.05
2023-03-10T10:16:34.633Z,24.60
2023-03-10T10:19:15.403Z,20.10
2023-03-10T10:21:50.776Z,18.77
2023-03-10T10:24:18.186Z,19.25
2023-03-10T10:26:45.599Z,20.15
2023-03-10T10:29:47.283Z,25.60
2023-03-10T10:32:16.636Z,17.10
2023-03-10T10:34:45.792Z,16.80
2023-03-10T10:37:35.568Z,17.13
2023-03-10T10:40:24.138Z,21.02
2023-03-10T10:42:55.802Z,17.75
2023-03-10T10:45:35.692Z,19.35
2023-03-10T10:48:03.874Z,16.00
2023-03-10T10:50:34.485Z,23.42
2023-03-10T10:53:13.919Z,18.38
2023-03-10T10:55:42.318Z,21.33
2023-03-10T10:58:35.946Z,18.08
2023-03-10T11:01:08.933Z,22.25
2023-03-10T11:03:39.854Z,20.30
2023-03-10T11:06:32.789Z,25.58
2023-03-10T11:09:19.091Z,22.95
2023-03-10T11:12:02.807Z,22.45
2023-03-10T11:14:35.364Z,23.95
2023-03-10T11:17:26.408Z,24.80
2023-03-10T11:20:17.773Z,20.30
2023-03-10T11:23:05.278Z,19.98
2023-03-10T11:25:58.038Z,19.48
2023-03-10T11:28:58.461Z,22.63
2023-03-10T11:31:47.084Z,22.15
2023-03-10T11:34:30.599Z,25.50
2023-03-10T11:37:16.509Z,26.80
2023-03-10T11:39:46.573Z,26.98
2023-03-10T11:42:46.809Z,27.02
2023-03-10T11:45:25.549Z,30.42
2023-03-10T11:48:27.056Z,29.45
2023-03-10T11:50:59.279Z,31.38
2023-03-10T11:53:50.052Z,42.08
2023-03-10T11:56:20.177Z,42.30
2023-03-10T11:59:01.229Z,38.08
2023-03-10T12:01:49.146Z,58.40
2023-03-10T12:04:22.229Z,71.97
2023-03-10T12:07:12.460Z,56.42
2023-03-10T12:10:02.350Z,51.13
2023-03-10T12:12:37.784Z,49.97
2023-03-10T12:15:11.989Z,51.33
2023-03-10T12:17:40.262Z,48.08
2023-03-10T12:20:13.529Z,46.42
2023-03-10T12:22:42.962Z,57.22
2023-03-10T12:25:32.859Z,65.80
2023-03-10T12:28:22.512Z,65.68
2023-03-10T12:30:50.557Z,65.88
2023-03-10T12:33:34.244Z,39.30
2023-03-10T12:36:26.080Z,38.95
2023-03-10T12:39:14.308Z,33.97
2023-03-10T12:42:01.042Z,30.80
2023-03-10T12:44:42.413Z,32.72
2023-03-10T12:47:09.602Z,33.97
2023-03-10T12:49:51.002Z,34.78
2023-03-10T12:52:36.228Z,52.03
2023-03-10T12:55:21.427Z,48.78
2023-03-10T12:58:07.024Z,44.67
2023-03-10T13:00:49.539Z,41.17
2023-03-10T13:03:20.032Z,31.73
2023-03-10T13:05:56.284Z,31.20
2023-03-10T13:08:31.672Z,28.70
2023-03-10T13:10:59.508Z,32.67
2023-03-10T13:13:33.677Z,31.98
2023-03-10T13:16:03.676Z,33.58
2023-03-10T13:18:31.403Z,35.00
2023-03-10T13:21:01.919Z,41.45
2023-03-10T13:23:34.814Z,40.53
2023-03-10T13:26:08.259Z,45.70
2023-03-10T13:28:36.587Z,42.05
2023-03-10T13:31:14.751Z,53.58
2023-03-10T13:33:52.670Z,49.33
2023-03-10T13:36:34.352Z,53.90
2023-03-10T13:39:15.647Z,47.03
2023-03-10T13:41:51.369Z,48.58
2023-03-10T13:44:21.563Z,47.47
2023-03-10T13:46:56.895Z,42.15
2023-03-10T13:49:26.517Z,41.47
2023-03-10T13:51:56.774Z,43.15
2023-03-10T13:54:29.740Z,38.88
2023-03-10T13:57:18.229Z,37.45
2023-03-10T13:59:47.075Z,44.40
2023-03-10T14:02:28.686Z,45.20
2023-03-10T14:05:00.026Z,48.63
2023-03-10T14:07:58.748Z,47.03
2023-03-10T14:10:25.881Z,45.47
2023-03-10T14:12:54.558Z,52.72
2023-03-10T14:15:27.712Z,56.38
2023-03-10T14:18:07.118Z,64.13
2023-03-10T14:20:42.066Z,43.67
2023-03-10T14:23:28.224Z,48.38
2023-03-10T14:26:00.568Z,44.00
2023-03-10T14:28:32.420Z,40.38
2023-03-10T14:31:02.991Z,45.72
2023-03-10T14:33:30.097Z,46.42
2023-03-10T14:35:57.192Z,42.13
2023-03-10T14:38:24.407Z,33.38
2023-03-10T14:40:56.063Z,44.47
2023-03-10T14:43:25.787Z,27.65
2023-03-10T14:45:55.399Z,40.00
2023-03-10T14:48:27.981Z,45.38
2023-03-10T14:50:56.965Z,43.42
2023-03-10T14:53:27.864Z,45.97
2023-03-10T14:56:01.657Z,56.80
2023-03-10T14:58:36.277Z,48.53
2023-03-10T15:01:03.686Z,39.88
2023-03-10T15:03:32.832Z,48.58
2023-03-10T15:06:00.037Z,49.55
2023-03-10T15:08:29.866Z,45.40
2023-03-10T15:10:57.871Z,47.97
2023-03-10T15:13:25.275Z,51.25
2023-03-10T15:15:53.894Z,37.30
2023-03-10T15:18:27.140Z,48.80
2023-03-10T15:21:04.245Z,54.22
2023-03-10T15:23:31.534Z,66.90
2023-03-10T15:26:09.635Z,70.35
2023-03-10T15:28:37.651Z,70.85
2023-03-10T15:31:05.374Z,67.85
2023-03-10T15:33:33.039Z,66.15
2023-03-10T15:36:00.230Z,89.78
2023-03-10T15:38:27.290Z,60.45
2023-03-10T15:40:54.726Z,58.20
2023-03-10T15:43:22.082Z,61.80
2023-03-10T15:45:52.048Z,63.08
2023-03-10T15:48:19.665Z,56.67
2023-03-10T15:50:49.715Z,51.55
2023-03-10T15:53:19.398Z,47.42
2023-03-10T15:55:46.630Z,48.20
2023-03-10T15:58:15.829Z,41.42
2023-03-10T16:00:44.033Z,52.03
2023-03-10T16:03:12.478Z,54.75
2023-03-10T16:05:47.912Z,68.45
2023-03-10T16:08:15.526Z,65.50
2023-03-10T16:10:54.932Z,54.70
2023-03-10T16:13:22.630Z,58.25
2023-03-10T16:15:49.821Z,58.00
2023-03-10T16:18:17.241Z,51.78
2023-03-10T16:20:44.356Z,54.80
2023-03-10T16:23:11.376Z,47.20
2023-03-10T16:25:38.690Z,51.15
2023-03-10T16:28:14.017Z,54.97
2023-03-10T16:30:41.663Z,62.45
2023-03-10T16:33:11.730Z,76.15
2023-03-10T16:35:39.348Z,68.68
2023-03-10T16:38:09.217Z,64.80
2023-03-10T16:40:36.559Z,64.97
2023-03-10T16:43:03.725Z,76.70
2023-03-10T16:45:31.258Z,68.95
2023-03-10T16:47:58.888Z,63.15
2023-03-10T16:50:26.055Z,47.03
2023-03-10T16:52:56.860Z,58.40
2023-03-10T16:55:24.221Z,47.25
2023-03-10T16:57:51.542Z,55.45
2023-03-10T17:00:21.229Z,61.42
2023-03-10T17:02:49.219Z,70.32
2023-03-10T17:05:18.197Z,64.97
2023-03-10T17:07:55.142Z,56.63
2023-03-10T17:10:23.335Z,47.65
2023-03-10T17:12:50.517Z,46.90
2023-03-10T17:15:18.095Z,45.63
2023-03-10T17:17:45.309Z,56.30
2023-03-10T17:20:14.005Z,46.00
2023-03-10T17:22:41.585Z,45.50
2023-03-10T17:25:09.562Z,44.75
2023-03-10T17:27:36.611Z,59.38
2023-03-10T17:30:04.152Z,64.47
2023-03-10T17:32:33.881Z,71.20
2023-03-10T17:35:01.300Z,75.68
2023-03-10T17:37:28.390Z,82.93
2023-03-10T17:39:55.723Z,74.97
2023-03-10T17:42:23.255Z,64.57
2023-03-10T17:44:50.717Z,65.80
2023-03-10T17:47:17.695Z,62.40
2023-03-10T17:49:45.570Z,61.63
2023-03-10T17:52:12.721Z,68.80
2023-03-10T17:54:42.537Z,65.45
2023-03-10T17:57:12.352Z,62.67
2023-03-10T17:59:39.703Z,70.88
2023-03-10T18:02:06.933Z,67.72
2023-03-10T18:04:36.571Z,62.40
2023-03-10T18:07:03.821Z,62.72
2023-03-10T18:09:31.028Z,60.95
2023-03-10T18:11:58.443Z,59.67
2023-03-10T18:15:25.376Z,60.40
2023-03-10T18:17:52.628Z,52.53
2023-03-10T18:20:19.925Z,54.45
2023-03-10T18:22:47.112Z,59.50
2023-03-10T18:25:14.289Z,57.47
2023-03-10T18:27:43.407Z,62.85
2023-03-10T18:30:11.976Z,68.57
2023-03-10T18:32:39.373Z,65.80
2023-03-10T18:35:07.172Z,57.47
2023-03-10T18:37:34.313Z,61.13
2023-03-10T18:40:01.606Z,57.28
2023-03-10T18:42:29.012Z,57.13
2023-03-10T18:44:56.175Z,62.80
2023-03-10T18:47:23.280Z,61.17
2023-03-10T18:49:50.350Z,63.63
2023-03-10T18:52:17.455Z,61.15
2023-03-10T18:54:45.334Z,62.65
2023-03-10T18:57:15.757Z,53.08
2023-03-10T18:59:42.801Z,59.45
2023-03-10T19:02:14.317Z,55.63
2023-03-10T19:04:41.528Z,53.78
2023-03-10T19:07:08.680Z,55.03
2023-03-10T19:09:36.409Z,65.05
2023-03-10T19:12:03.802Z,61.40
2023-03-10T19:14:33.304Z,59.90
2023-03-10T19:17:00.453Z,64.22
2023-03-10T19:19:30.677Z,65.00
2023-03-10T19:21:57.709Z,65.50
2023-03-10T19:24:25.624Z,67.25
2023-03-10T19:26:52.706Z,73.53
2023-03-10T19:29:20.093Z,76.07
2023-03-10T19:31:47.572Z,75.15
2023-03-10T19:34:14.856Z,71.93
2023-03-10T19:36:42.204Z,78.88
2023-03-10T19:39:09.504Z,79.57
2023-03-10T19:41:39.478Z,78.43
2023-03-10T19:44:08.624Z,75.15
2023-03-10T19:46:36.022Z,78.28
2023-03-10T19:49:12.278Z,73.28
2023-03-10T19:51:40.771Z,86.82
2023-03-10T19:54:09.672Z,91.15
2023-03-10T19:56:39.307Z,98.07
2023-03-10T19:59:06.776Z,93.75
2023-03-10T20:01:34.084Z,96.50
2023-03-10T20:04:02.681Z,103.22
2023-03-10T20:06:30.278Z,85.40
2023-03-10T20:08:57.650Z,76.28
2023-03-10T20:11:24.842Z,76.15
2023-03-10T20:13:53.191Z,84.97
2023-03-10T20:16:22.756Z,95.25
2023-03-10T20:18:50.061Z,91.15
2023-03-10T20:21:17.405Z,78.93
2023-03-10T20:23:47.715Z,89.25
2023-03-10T20:26:16.371Z,104.38
2023-03-10T20:28:43.993Z,109.95
2023-03-10T20:31:18.909Z,92.07
2023-03-10T20:33:46.417Z,76.25
2023-03-10T20:36:16.205Z,66.88
2023-03-10T20:38:47.410Z,60.50
2023-03-10T20:41:16.398Z,59.78
2023-03-10T20:43:44.311Z,54.30
2023-03-10T20:46:12.194Z,55.55
2023-03-10T20:48:39.457Z,60.05
2023-03-10T20:51:07.142Z,58.30
2023-03-10T20:53:37.916Z,57.00
2023-03-10T20:56:10.660Z,63.80
2023-03-10T20:58:38.509Z,69.82
2023-03-10T21:01:05.747Z,75.53
2023-03-10T21:03:32.919Z,70.32
2023-03-10T21:05:59.971Z,78.15
2023-03-10T21:08:27.273Z,69.82
2023-03-10T21:10:54.495Z,63.00
2023-03-10T21:13:21.806Z,68.97
2023-03-10T21:15:48.968Z,61.75
2023-03-10T21:18:16.226Z,59.13
2023-03-10T21:20:43.790Z,66.13
2023-03-10T21:23:11.171Z,67.15
2023-03-10T21:25:38.470Z,67.90
2023-03-10T21:28:05.529Z,70.15
2023-03-10T21:30:33.761Z,68.00
2023-03-10T21:33:01.178Z,67.55
2023-03-10T21:35:32.329Z,68.30
2023-03-10T21:38:00.074Z,66.38
2023-03-10T21:40:29.426Z,68.57
2023-03-10T21:42:56.714Z,70.88
2023-03-10T21:45:26.852Z,69.35
2023-03-10T21:47:54.158Z,61.55
2023-03-10T21:50:21.356Z,61.00
2023-03-10T21:52:48.611Z,66.13
2023-03-10T21:55:19.849Z,57.17
2023-03-10T21:57:47.575Z,53.92
2023-03-10T22:00:24.170Z,56.20
2023-03-10T22:02:53.069Z,60.20
2023-03-10T22:05:20.821Z,64.00
2023-03-10T22:07:48.503Z,61.17
2023-03-10T22:10:18.121Z,60.65
2023-03-10T22:12:45.683Z,55.38
2023-03-10T22:15:18.936Z,58.55
2023-03-10T22:17:46.823Z,53.33
2023-03-10T22:20:18.580Z,56.28
2023-03-10T22:22:45.814Z,50.78
2023-03-10T22:25:14.784Z,46.70
2023-03-10T22:27:43.228Z,50.85
2023-03-10T22:30:11.448Z,42.30
2023-03-10T22:32:38.576Z,42.53
2023-03-10T22:35:06.284Z,40.00
2023-03-10T22:37:33.355Z,37.95
2023-03-10T22:40:01.323Z,36.08
2023-03-10T22:42:29.948Z,33.00
2023-03-10T22:44:57.060Z,34.35
2023-03-10T22:47:24.431Z,37.60
2023-03-10T22:49:51.632Z,38.17
2023-03-10T22:52:19.653Z,41.47
2023-03-10T22:54:47.384Z,38.80
2023-03-10T22:57:17.795Z,38.85
2023-03-10T22:59:54.134Z,30.48
2023-03-10T23:02:22.141Z,33.20
2023-03-10T23:04:50.236Z,32.80
2023-03-10T23:07:18.613Z,30.52
2023-03-10T23:09:46.152Z,31.73
2023-03-10T23:12:15.541Z,28.67
2023-03-10T23:14:42.870Z,27.10
2023-03-10T23:17:10.687Z,31.60
2023-03-10T23:19:37.935Z,26.98
2023-03-10T23:22:05.226Z,30.23
2023-03-10T23:24:32.568Z,29.75
2023-03-10T23:26:59.838Z,27.38
2023-03-10T23:29:29.130Z,28.13
2023-03-10T23:31:56.297Z,29.40
2023-03-10T23:34:23.487Z,26.02
2023-03-10T23:36:50.616Z,25.73
2023-03-10T23:39:20.197Z,35.63
2023-03-10T23:41:49.377Z,27.10
2023-03-10T23:44:16.885Z,27.15
2023-03-10T23:46:44.078Z,23.75
2023-03-10T23:49:11.223Z,21.33
2023-03-10T23:51:38.603Z,22.40
2023-03-10T23:54:08.307Z,23.55
2023-03-10T23:56:35.612Z,21.20
2023-03-10T23:59:03.182Z,23.00
